Aérodrome :







RETROUVEZ-NOUS SUR...

 
LOGIN :

S'inscrire | Disclaimer

   EN    FR    IT 

 









Légende :    VFR   VFR Marginal   IFR   IFR Intensif   IFR Très Intensif
Visi : 
Plafond : 
>= 8 km
>= 3000ft
5 à 8 km
1000 à 3000 ft
1500m à 5 km
500 à 1000 ft
800 à 1500m
200 à 500 ft
< 800m
< 200 ft
Symboles :   Orages  Brouillard  Fortes neiges  Fortes précipitations  Vent > 20 kt






- Altitude de l'aérodrome : 62 ft
- Code IATA : ANU


TAPA - V C Bird Int.

DERNIER METAR :
  • 021300Z 08006KT 040V120 9999 FEW020 27/20 Q1015 NOSIG

METARs EXPIRÉS :
  • 021200Z 08008KT 040V130 9999 FEW020 26/20 Q1015 NOSIG
  • 021100Z 06006KT 9999 FEW018 24/20 Q1014 NOSIG

TAF TAF TAPA
Valide du 02 à 12h jusqu'au 03 à 12h UTC


021124Z 0212/0312 07010KT 9999 SCT020
FIR TTZP / Amérique du Nord



MET'MAP, la Météo Aéronautique d'un coup d'oeil ! - Copyright ORBIFLY Décembre 2007 - Disclaimer

ORBIFLY MET'MAP TEAM :

Programmation & Développement : Alexandra Zaïnal
Sur une idée originale de : Baudouin d'Aumeries
Assistance à la programmation : Marc-Olivier Méhu
Soutien technique & logistique : Manuel Goepfert

Contact : metmap@orbifly.com




SOURCES & CREDITS :

   NOAA